sensor_id;sensor_type;location;lat;lon;timestamp;temperature;humidity
57753;DHT22;43583;53.132;6.574;2022-11-20T00:02:21;-0.50;99.90
57753;DHT22;43583;53.132;6.574;2022-11-20T00:04:47;-0.50;99.90
57753;DHT22;43583;53.132;6.574;2022-11-20T00:07:12;-0.40;99.90
57753;DHT22;43583;53.132;6.574;2022-11-20T00:09:38;-0.40;99.90
57753;DHT22;43583;53.132;6.574;2022-11-20T00:12:04;-0.40;99.90
57753;DHT22;43583;53.132;6.574;2022-11-20T00:14:29;-0.40;99.90
57753;DHT22;43583;53.132;6.574;2022-11-20T00:16:55;-0.40;99.90
57753;DHT22;43583;53.132;6.574;2022-11-20T00:19:20;-0.40;99.90
57753;DHT22;43583;53.132;6.574;2022-11-20T00:21:46;-0.40;99.90
57753;DHT22;43583;53.132;6.574;2022-11-20T00:24:11;-0.30;99.90
57753;DHT22;43583;53.132;6.574;2022-11-20T00:26:37;-0.30;99.90
57753;DHT22;43583;53.132;6.574;2022-11-20T00:29:03;-0.30;99.90
57753;DHT22;43583;53.132;6.574;2022-11-20T00:31:29;-0.30;99.90
57753;DHT22;43583;53.132;6.574;2022-11-20T00:33:55;-0.30;99.90
57753;DHT22;43583;53.132;6.574;2022-11-20T00:36:23;-0.30;99.90
57753;DHT22;43583;53.132;6.574;2022-11-20T00:38:53;-0.30;99.90
57753;DHT22;43583;53.132;6.574;2022-11-20T00:41:19;-0.20;99.90
57753;DHT22;43583;53.132;6.574;2022-11-20T00:43:45;-0.20;99.90
57753;DHT22;43583;53.132;6.574;2022-11-20T00:46:14;-0.20;99.90
57753;DHT22;43583;53.132;6.574;2022-11-20T00:48:40;-0.20;99.90
57753;DHT22;43583;53.132;6.574;2022-11-20T00:51:06;-0.20;99.90
57753;DHT22;43583;53.132;6.574;2022-11-20T00:53:31;-0.20;99.90
57753;DHT22;43583;53.132;6.574;2022-11-20T00:56:02;-0.20;99.90
57753;DHT22;43583;53.132;6.574;2022-11-20T00:58:31;-0.20;99.90
57753;DHT22;43583;53.132;6.574;2022-11-20T01:01:05;-0.20;99.90
57753;DHT22;43583;53.132;6.574;2022-11-20T01:03:32;-0.20;99.90
57753;DHT22;43583;53.132;6.574;2022-11-20T01:06:02;-0.20;99.90
57753;DHT22;43583;53.132;6.574;2022-11-20T01:08:32;-0.20;99.90
57753;DHT22;43583;53.132;6.574;2022-11-20T01:11:03;-0.20;99.90
57753;DHT22;43583;53.132;6.574;2022-11-20T01:13:30;-0.20;99.90
57753;DHT22;43583;53.132;6.574;2022-11-20T01:16:15;-0.10;99.90
57753;DHT22;43583;53.132;6.574;2022-11-20T01:18:43;-0.10;99.90
57753;DHT22;43583;53.132;6.574;2022-11-20T01:21:20;-0.10;99.90
57753;DHT22;43583;53.132;6.574;2022-11-20T01:23:47;-0.10;99.90
57753;DHT22;43583;53.132;6.574;2022-11-20T01:26:17;-0.10;99.90
57753;DHT22;43583;53.132;6.574;2022-11-20T01:28:43;-0.10;99.90
57753;DHT22;43583;53.132;6.574;2022-11-20T01:33:43;-0.10;99.90
57753;DHT22;43583;53.132;6.574;2022-11-20T01:36:10;-0.10;99.90
57753;DHT22;43583;53.132;6.574;2022-11-20T01:38:36;-0.10;99.90
57753;DHT22;43583;53.132;6.574;2022-11-20T01:41:02;-0.10;99.90
57753;DHT22;43583;53.132;6.574;2022-11-20T01:43:28;-0.10;99.90
57753;DHT22;43583;53.132;6.574;2022-11-20T01:46:16;-0.10;99.90
57753;DHT22;43583;53.132;6.574;2022-11-20T01:48:56;-0.10;99.90
57753;DHT22;43583;53.132;6.574;2022-11-20T01:51:25;-0.10;99.90
57753;DHT22;43583;53.132;6.574;2022-11-20T01:53:55;-0.10;99.90
57753;DHT22;43583;53.132;6.574;2022-11-20T01:56:22;-0.10;99.90
57753;DHT22;43583;53.132;6.574;2022-11-20T01:58:52;-0.10;99.90
57753;DHT22;43583;53.132;6.574;2022-11-20T02:01:21;0.00;99.90
57753;DHT22;43583;53.132;6.574;2022-11-20T02:03:47;-0.10;99.90
57753;DHT22;43583;53.132;6.574;2022-11-20T02:06:25;-0.10;99.90
57753;DHT22;43583;53.132;6.574;2022-11-20T02:08:52;0.00;99.90
57753;DHT22;43583;53.132;6.574;2022-11-20T02:11:18;0.00;99.90
57753;DHT22;43583;53.132;6.574;2022-11-20T02:13:44;0.00;99.90
57753;DHT22;43583;53.132;6.574;2022-11-20T02:16:45;0.00;99.90
57753;DHT22;43583;53.132;6.574;2022-11-20T02:19:31;0.00;99.90
57753;DHT22;43583;53.132;6.574;2022-11-20T02:24:29;0.10;99.90
57753;DHT22;43583;53.132;6.574;2022-11-20T02:29:34;0.10;99.90
57753;DHT22;43583;53.132;6.574;2022-11-20T02:32:00;0.10;99.90
57753;DHT22;43583;53.132;6.574;2022-11-20T02:34:27;0.10;99.90
57753;DHT22;43583;53.132;6.574;2022-11-20T02:36:54;0.10;99.90
57753;DHT22;43583;53.132;6.574;2022-11-20T02:39:20;0.10;99.90
57753;DHT22;43583;53.132;6.574;2022-11-20T02:41:50;0.10;99.90
57753;DHT22;43583;53.132;6.574;2022-11-20T02:44:17;0.10;99.90
57753;DHT22;43583;53.132;6.574;2022-11-20T02:46:42;0.10;99.90
57753;DHT22;43583;53.132;6.574;2022-11-20T02:49:08;0.10;99.90
57753;DHT22;43583;53.132;6.574;2022-11-20T02:51:33;0.20;99.90
57753;DHT22;43583;53.132;6.574;2022-11-20T02:53:59;0.10;99.90
57753;DHT22;43583;53.132;6.574;2022-11-20T02:56:25;0.20;99.90
57753;DHT22;43583;53.132;6.574;2022-11-20T02:58:51;0.20;99.90
57753;DHT22;43583;53.132;6.574;2022-11-20T03:01:16;0.20;99.90
57753;DHT22;43583;53.132;6.574;2022-11-20T03:03:42;0.20;99.90
57753;DHT22;43583;53.132;6.574;2022-11-20T03:06:07;0.20;99.90
57753;DHT22;43583;53.132;6.574;2022-11-20T03:08:33;0.20;99.90
57753;DHT22;43583;53.132;6.574;2022-11-20T03:11:04;0.20;99.90
57753;DHT22;43583;53.132;6.574;2022-11-20T03:13:30;0.20;99.90
57753;DHT22;43583;53.132;6.574;2022-11-20T03:15:55;0.20;99.90
57753;DHT22;43583;53.132;6.574;2022-11-20T03:18:21;0.20;99.90
57753;DHT22;43583;53.132;6.574;2022-11-20T03:20:46;0.20;99.90
57753;DHT22;43583;53.132;6.574;2022-11-20T03:23:12;0.20;99.90
57753;DHT22;43583;53.132;6.574;2022-11-20T03:25:37;0.30;99.90
57753;DHT22;43583;53.132;6.574;2022-11-20T03:28:03;0.30;99.90
57753;DHT22;43583;53.132;6.574;2022-11-20T03:30:28;0.30;99.90
57753;DHT22;43583;53.132;6.574;2022-11-20T03:32:54;0.30;99.90
57753;DHT22;43583;53.132;6.574;2022-11-20T03:35:20;0.30;99.90
57753;DHT22;43583;53.132;6.574;2022-11-20T03:37:46;0.30;99.90
57753;DHT22;43583;53.132;6.574;2022-11-20T03:40:12;0.30;99.90
57753;DHT22;43583;53.132;6.574;2022-11-20T03:42:37;0.30;99.90
57753;DHT22;43583;53.132;6.574;2022-11-20T03:45:13;0.30;99.90
57753;DHT22;43583;53.132;6.574;2022-11-20T03:47:39;0.30;99.90
57753;DHT22;43583;53.132;6.574;2022-11-20T03:50:05;0.30;99.90
57753;DHT22;43583;53.132;6.574;2022-11-20T03:52:31;0.30;99.90
57753;DHT22;43583;53.132;6.574;2022-11-20T03:54:56;0.30;99.90
57753;DHT22;43583;53.132;6.574;2022-11-20T03:57:22;0.30;99.90
57753;DHT22;43583;53.132;6.574;2022-11-20T03:59:47;0.30;99.90
57753;DHT22;43583;53.132;6.574;2022-11-20T04:02:13;0.40;99.90
57753;DHT22;43583;53.132;6.574;2022-11-20T04:04:38;0.40;99.90
57753;DHT22;43583;53.132;6.574;2022-11-20T04:07:04;0.40;99.90
57753;DHT22;43583;53.132;6.574;2022-11-20T04:09:29;0.40;99.90
57753;DHT22;43583;53.132;6.574;2022-11-20T04:11:55;0.40;99.90
57753;DHT22;43583;53.132;6.574;2022-11-20T04:14:20;0.40;99.90
57753;DHT22;43583;53.132;6.574;2022-11-20T04:16:46;0.40;99.90
57753;DHT22;43583;53.132;6.574;2022-11-20T04:19:14;0.40;99.90
57753;DHT22;43583;53.132;6.574;2022-11-20T04:21:40;0.40;99.90
57753;DHT22;43583;53.132;6.574;2022-11-20T04:24:06;0.40;99.90
57753;DHT22;43583;53.132;6.574;2022-11-20T04:26:32;0.40;99.90
57753;DHT22;43583;53.132;6.574;2022-11-20T04:28:58;0.30;99.90
57753;DHT22;43583;53.132;6.574;2022-11-20T04:31:26;0.30;99.90
57753;DHT22;43583;53.132;6.574;2022-11-20T04:33:51;0.30;99.90
57753;DHT22;43583;53.132;6.574;2022-11-20T04:36:26;0.30;99.90
57753;DHT22;43583;53.132;6.574;2022-11-20T04:38:54;0.40;99.90
57753;DHT22;43583;53.132;6.574;2022-11-20T04:41:21;0.30;99.90
57753;DHT22;43583;53.132;6.574;2022-11-20T04:43:49;0.40;99.90
57753;DHT22;43583;53.132;6.574;2022-11-20T04:46:15;0.40;99.90
57753;DHT22;43583;53.132;6.574;2022-11-20T04:48:40;0.40;99.90
57753;DHT22;43583;53.132;6.574;2022-11-20T04:51:06;0.40;99.90
57753;DHT22;43583;53.132;6.574;2022-11-20T04:53:32;0.40;99.90
57753;DHT22;43583;53.132;6.574;2022-11-20T04:56:02;0.40;99.90
57753;DHT22;43583;53.132;6.574;2022-11-20T04:58:28;0.40;99.90
57753;DHT22;43583;53.132;6.574;2022-11-20T05:01:01;0.40;99.90
57753;DHT22;43583;53.132;6.574;2022-11-20T05:03:27;0.40;99.90
57753;DHT22;43583;53.132;6.574;2022-11-20T05:05:53;0.40;99.90
57753;DHT22;43583;53.132;6.574;2022-11-20T05:08:18;0.40;99.90
57753;DHT22;43583;53.132;6.574;2022-11-20T05:10:44;0.40;99.90
57753;DHT22;43583;53.132;6.574;2022-11-20T05:13:09;0.40;99.90
57753;DHT22;43583;53.132;6.574;2022-11-20T05:15:35;0.40;99.90
57753;DHT22;43583;53.132;6.574;2022-11-20T05:18:00;0.40;99.90
57753;DHT22;43583;53.132;6.574;2022-11-20T05:20:26;0.50;99.90
57753;DHT22;43583;53.132;6.574;2022-11-20T05:22:51;0.50;99.90
57753;DHT22;43583;53.132;6.574;2022-11-20T05:25:17;0.50;99.90
57753;DHT22;43583;53.132;6.574;2022-11-20T05:27:42;0.50;99.90
57753;DHT22;43583;53.132;6.574;2022-11-20T05:30:08;0.50;99.90
57753;DHT22;43583;53.132;6.574;2022-11-20T05:32:34;0.50;99.90
57753;DHT22;43583;53.132;6.574;2022-11-20T05:35:00;0.50;99.90
57753;DHT22;43583;53.132;6.574;2022-11-20T05:37:25;0.50;99.90
57753;DHT22;43583;53.132;6.574;2022-11-20T05:39:51;0.40;99.90
57753;DHT22;43583;53.132;6.574;2022-11-20T05:42:16;0.40;99.90
57753;DHT22;43583;53.132;6.574;2022-11-20T05:44:58;0.40;99.90
57753;DHT22;43583;53.132;6.574;2022-11-20T05:47:24;0.40;99.90
57753;DHT22;43583;53.132;6.574;2022-11-20T05:49:50;0.50;99.90
57753;DHT22;43583;53.132;6.574;2022-11-20T05:52:16;0.40;99.90
57753;DHT22;43583;53.132;6.574;2022-11-20T05:54:41;0.50;99.90
57753;DHT22;43583;53.132;6.574;2022-11-20T05:57:07;0.50;99.90
57753;DHT22;43583;53.132;6.574;2022-11-20T05:59:32;0.50;99.90
57753;DHT22;43583;53.132;6.574;2022-11-20T06:01:58;0.50;99.90
57753;DHT22;43583;53.132;6.574;2022-11-20T06:04:23;0.40;99.90
57753;DHT22;43583;53.132;6.574;2022-11-20T06:06:49;0.50;99.90
57753;DHT22;43583;53.132;6.574;2022-11-20T06:09:14;0.50;99.90
57753;DHT22;43583;53.132;6.574;2022-11-20T06:11:40;0.50;99.90
57753;DHT22;43583;53.132;6.574;2022-11-20T06:14:06;0.50;99.90
57753;DHT22;43583;53.132;6.574;2022-11-20T06:16:31;0.50;99.90
57753;DHT22;43583;53.132;6.574;2022-11-20T06:18:57;0.50;99.90
57753;DHT22;43583;53.132;6.574;2022-11-20T06:21:23;0.50;99.90
57753;DHT22;43583;53.132;6.574;2022-11-20T06:23:49;0.50;99.90
57753;DHT22;43583;53.132;6.574;2022-11-20T06:26:17;0.50;99.90
57753;DHT22;43583;53.132;6.574;2022-11-20T06:28:43;0.50;99.90
57753;DHT22;43583;53.132;6.574;2022-11-20T06:31:11;0.50;99.90
57753;DHT22;43583;53.132;6.574;2022-11-20T06:33:37;0.60;99.90
57753;DHT22;43583;53.132;6.574;2022-11-20T06:36:03;0.60;99.90
57753;DHT22;43583;53.132;6.574;2022-11-20T06:38:29;0.60;99.90
57753;DHT22;43583;53.132;6.574;2022-11-20T06:40:55;0.60;99.90
57753;DHT22;43583;53.132;6.574;2022-11-20T06:43:22;0.60;99.90
57753;DHT22;43583;53.132;6.574;2022-11-20T06:45:54;0.60;99.90
57753;DHT22;43583;53.132;6.574;2022-11-20T06:48:20;0.60;99.90
57753;DHT22;43583;53.132;6.574;2022-11-20T06:50:46;0.50;99.90
57753;DHT22;43583;53.132;6.574;2022-11-20T06:53:12;0.60;99.90
57753;DHT22;43583;53.132;6.574;2022-11-20T06:55:42;0.60;99.90
57753;DHT22;43583;53.132;6.574;2022-11-20T06:58:07;0.60;99.90
57753;DHT22;43583;53.132;6.574;2022-11-20T07:00:33;0.50;99.90
57753;DHT22;43583;53.132;6.574;2022-11-20T07:03:03;0.60;99.90
57753;DHT22;43583;53.132;6.574;2022-11-20T07:05:29;0.60;99.90
57753;DHT22;43583;53.132;6.574;2022-11-20T07:07:56;0.60;99.90
57753;DHT22;43583;53.132;6.574;2022-11-20T07:10:21;0.60;99.90
57753;DHT22;43583;53.132;6.574;2022-11-20T07:12:53;0.60;99.90
57753;DHT22;43583;53.132;6.574;2022-11-20T07:15:21;0.60;99.90
57753;DHT22;43583;53.132;6.574;2022-11-20T07:17:47;0.60;99.90
57753;DHT22;43583;53.132;6.574;2022-11-20T07:20:13;0.60;99.90
57753;DHT22;43583;53.132;6.574;2022-11-20T07:22:39;0.60;99.90
57753;DHT22;43583;53.132;6.574;2022-11-20T07:25:05;0.60;99.90
57753;DHT22;43583;53.132;6.574;2022-11-20T07:27:31;0.60;99.90
57753;DHT22;43583;53.132;6.574;2022-11-20T07:29:57;0.70;99.90
57753;DHT22;43583;53.132;6.574;2022-11-20T07:32:22;0.70;99.90
57753;DHT22;43583;53.132;6.574;2022-11-20T07:34:48;0.70;99.90
57753;DHT22;43583;53.132;6.574;2022-11-20T07:37:14;0.70;99.90
57753;DHT22;43583;53.132;6.574;2022-11-20T07:39:40;0.70;99.90
57753;DHT22;43583;53.132;6.574;2022-11-20T07:42:09;0.70;99.90
57753;DHT22;43583;53.132;6.574;2022-11-20T07:44:35;0.80;99.90
57753;DHT22;43583;53.132;6.574;2022-11-20T07:47:02;0.80;99.90
57753;DHT22;43583;53.132;6.574;2022-11-20T07:49:28;0.80;99.90
57753;DHT22;43583;53.132;6.574;2022-11-20T07:51:53;0.80;99.90
57753;DHT22;43583;53.132;6.574;2022-11-20T07:54:20;0.90;99.90
57753;DHT22;43583;53.132;6.574;2022-11-20T07:56:46;0.90;99.90
57753;DHT22;43583;53.132;6.574;2022-11-20T07:59:12;0.90;99.90
57753;DHT22;43583;53.132;6.574;2022-11-20T08:01:38;0.90;99.90
57753;DHT22;43583;53.132;6.574;2022-11-20T08:04:04;1.00;99.90
57753;DHT22;43583;53.132;6.574;2022-11-20T08:06:30;1.00;99.90
57753;DHT22;43583;53.132;6.574;2022-11-20T08:08:55;1.10;99.90
57753;DHT22;43583;53.132;6.574;2022-11-20T08:11:21;1.10;99.90
57753;DHT22;43583;53.132;6.574;2022-11-20T08:14:05;1.10;99.90
57753;DHT22;43583;53.132;6.574;2022-11-20T08:16:47;1.20;99.90
57753;DHT22;43583;53.132;6.574;2022-11-20T08:19:17;1.20;99.90
57753;DHT22;43583;53.132;6.574;2022-11-20T08:21:43;1.20;99.90
57753;DHT22;43583;53.132;6.574;2022-11-20T08:24:10;1.20;99.90
57753;DHT22;43583;53.132;6.574;2022-11-20T08:26:37;1.30;99.90
57753;DHT22;43583;53.132;6.574;2022-11-20T08:29:04;1.30;99.90
57753;DHT22;43583;53.132;6.574;2022-11-20T08:31:30;1.30;99.90
57753;DHT22;43583;53.132;6.574;2022-11-20T08:33:56;1.30;99.90
57753;DHT22;43583;53.132;6.574;2022-11-20T08:36:22;1.30;99.90
57753;DHT22;43583;53.132;6.574;2022-11-20T08:38:54;1.30;99.90
57753;DHT22;43583;53.132;6.574;2022-11-20T08:41:20;1.30;99.90
57753;DHT22;43583;53.132;6.574;2022-11-20T08:43:58;1.30;99.90
57753;DHT22;43583;53.132;6.574;2022-11-20T08:46:26;1.30;99.90
57753;DHT22;43583;53.132;6.574;2022-11-20T08:48:52;1.40;99.90
57753;DHT22;43583;53.132;6.574;2022-11-20T08:51:19;1.40;99.90
57753;DHT22;43583;53.132;6.574;2022-11-20T08:53:45;1.40;99.90
57753;DHT22;43583;53.132;6.574;2022-11-20T08:56:10;1.40;99.90
57753;DHT22;43583;53.132;6.574;2022-11-20T08:58:37;1.50;99.90
57753;DHT22;43583;53.132;6.574;2022-11-20T09:01:03;1.50;99.90
57753;DHT22;43583;53.132;6.574;2022-11-20T09:03:28;1.50;99.90
57753;DHT22;43583;53.132;6.574;2022-11-20T09:06:02;1.50;99.90
57753;DHT22;43583;53.132;6.574;2022-11-20T09:08:29;1.60;99.90
57753;DHT22;43583;53.132;6.574;2022-11-20T09:10:55;1.60;99.90
57753;DHT22;43583;53.132;6.574;2022-11-20T09:13:22;1.60;99.90
57753;DHT22;43583;53.132;6.574;2022-11-20T09:15:53;1.60;99.90
57753;DHT22;43583;53.132;6.574;2022-11-20T09:18:20;1.60;99.90
57753;DHT22;43583;53.132;6.574;2022-11-20T09:20:45;1.60;99.90
57753;DHT22;43583;53.132;6.574;2022-11-20T09:23:11;1.70;99.90
57753;DHT22;43583;53.132;6.574;2022-11-20T09:25:36;1.70;99.90
57753;DHT22;43583;53.132;6.574;2022-11-20T09:28:02;1.70;99.90
57753;DHT22;43583;53.132;6.574;2022-11-20T09:30:27;1.80;99.90
57753;DHT22;43583;53.132;6.574;2022-11-20T09:32:53;1.80;99.90
57753;DHT22;43583;53.132;6.574;2022-11-20T09:35:18;1.80;99.90
57753;DHT22;43583;53.132;6.574;2022-11-20T09:37:45;1.80;99.90
57753;DHT22;43583;53.132;6.574;2022-11-20T09:40:20;1.80;99.90
57753;DHT22;43583;53.132;6.574;2022-11-20T09:46:28;1.90;99.90
57753;DHT22;43583;53.132;6.574;2022-11-20T09:51:50;2.00;99.90
57753;DHT22;43583;53.132;6.574;2022-11-20T09:54:28;2.10;99.90
57753;DHT22;43583;53.132;6.574;2022-11-20T09:57:03;2.10;99.90
57753;DHT22;43583;53.132;6.574;2022-11-20T09:59:42;2.20;99.90
57753;DHT22;43583;53.132;6.574;2022-11-20T10:02:30;2.20;99.90
57753;DHT22;43583;53.132;6.574;2022-11-20T10:05:12;2.20;99.90
57753;DHT22;43583;53.132;6.574;2022-11-20T10:10:18;2.20;99.90
57753;DHT22;43583;53.132;6.574;2022-11-20T10:27:16;2.30;99.90
57753;DHT22;43583;53.132;6.574;2022-11-20T10:30:06;2.40;99.90
57753;DHT22;43583;53.132;6.574;2022-11-20T10:32:45;2.40;99.90
57753;DHT22;43583;53.132;6.574;2022-11-20T10:35:22;2.50;99.90
57753;DHT22;43583;53.132;6.574;2022-11-20T10:38:39;2.50;99.90
57753;DHT22;43583;53.132;6.574;2022-11-20T10:40:42;2.60;99.90
57753;DHT22;43583;53.132;6.574;2022-11-20T10:43:24;2.70;99.90
57753;DHT22;43583;53.132;6.574;2022-11-20T10:46:00;2.70;99.90
57753;DHT22;43583;53.132;6.574;2022-11-20T10:48:27;2.70;99.90
57753;DHT22;43583;53.132;6.574;2022-11-20T10:54:39;2.80;99.90
57753;DHT22;43583;53.132;6.574;2022-11-20T10:56:35;2.80;99.90
57753;DHT22;43583;53.132;6.574;2022-11-20T11:02:24;2.90;99.90
57753;DHT22;43583;53.132;6.574;2022-11-20T11:04:51;3.00;99.90
57753;DHT22;43583;53.132;6.574;2022-11-20T11:07:20;2.90;99.90
57753;DHT22;43583;53.132;6.574;2022-11-20T11:09:49;3.00;99.90
57753;DHT22;43583;53.132;6.574;2022-11-20T11:12:15;3.00;99.90
57753;DHT22;43583;53.132;6.574;2022-11-20T11:14:46;3.00;99.90
57753;DHT22;43583;53.132;6.574;2022-11-20T11:17:47;3.00;99.90
57753;DHT22;43583;53.132;6.574;2022-11-20T11:20:31;2.90;99.90
57753;DHT22;43583;53.132;6.574;2022-11-20T11:22:59;2.80;99.90
57753;DHT22;43583;53.132;6.574;2022-11-20T11:25:35;2.70;99.90
57753;DHT22;43583;53.132;6.574;2022-11-20T11:28:22;2.70;99.90
57753;DHT22;43583;53.132;6.574;2022-11-20T11:30:50;2.70;99.90
57753;DHT22;43583;53.132;6.574;2022-11-20T11:33:21;2.70;99.90
57753;DHT22;43583;53.132;6.574;2022-11-20T11:35:49;2.80;99.90
57753;DHT22;43583;53.132;6.574;2022-11-20T11:38:18;2.80;99.90
57753;DHT22;43583;53.132;6.574;2022-11-20T11:40:46;2.90;99.90
57753;DHT22;43583;53.132;6.574;2022-11-20T11:43:31;2.90;99.90
57753;DHT22;43583;53.132;6.574;2022-11-20T11:46:32;2.90;99.90
57753;DHT22;43583;53.132;6.574;2022-11-20T12:08:05;2.90;99.90
57753;DHT22;43583;53.132;6.574;2022-11-20T12:10:57;2.90;99.90
57753;DHT22;43583;53.132;6.574;2022-11-20T12:13:45;3.00;99.90
57753;DHT22;43583;53.132;6.574;2022-11-20T12:16:14;3.10;99.90
57753;DHT22;43583;53.132;6.574;2022-11-20T12:18:41;3.20;99.90
57753;DHT22;43583;53.132;6.574;2022-11-20T12:27:08;3.60;99.90
57753;DHT22;43583;53.132;6.574;2022-11-20T12:30:10;3.80;99.90
57753;DHT22;43583;53.132;6.574;2022-11-20T12:43:41;4.50;99.90
57753;DHT22;43583;53.132;6.574;2022-11-20T12:46:28;4.50;99.90
57753;DHT22;43583;53.132;6.574;2022-11-20T12:51:56;4.30;99.90
57753;DHT22;43583;53.132;6.574;2022-11-20T12:57:56;4.00;99.90
57753;DHT22;43583;53.132;6.574;2022-11-20T13:00:23;3.90;99.90
57753;DHT22;43583;53.132;6.574;2022-11-20T13:08:21;3.80;99.90
57753;DHT22;43583;53.132;6.574;2022-11-20T13:16:22;4.00;99.90
57753;DHT22;43583;53.132;6.574;2022-11-20T13:18:49;4.00;99.90
57753;DHT22;43583;53.132;6.574;2022-11-20T13:21:20;4.00;99.90
57753;DHT22;43583;53.132;6.574;2022-11-20T13:23:46;4.00;99.90
57753;DHT22;43583;53.132;6.574;2022-11-20T13:26:20;4.00;99.90
57753;DHT22;43583;53.132;6.574;2022-11-20T13:28:59;4.00;99.90
57753;DHT22;43583;53.132;6.574;2022-11-20T13:31:33;4.00;99.90
57753;DHT22;43583;53.132;6.574;2022-11-20T13:34:03;4.00;99.90
57753;DHT22;43583;53.132;6.574;2022-11-20T13:36:30;4.00;99.90
57753;DHT22;43583;53.132;6.574;2022-11-20T13:38:57;3.90;99.90
57753;DHT22;43583;53.132;6.574;2022-11-20T13:41:34;3.90;99.90
57753;DHT22;43583;53.132;6.574;2022-11-20T13:44:13;3.90;99.90
57753;DHT22;43583;53.132;6.574;2022-11-20T13:46:45;3.80;99.90
57753;DHT22;43583;53.132;6.574;2022-11-20T13:49:33;3.80;99.90
57753;DHT22;43583;53.132;6.574;2022-11-20T13:55:05;3.80;99.90
57753;DHT22;43583;53.132;6.574;2022-11-20T14:00:25;3.70;99.90
57753;DHT22;43583;53.132;6.574;2022-11-20T14:05:26;3.70;99.90
57753;DHT22;43583;53.132;6.574;2022-11-20T14:07:52;3.70;99.90
57753;DHT22;43583;53.132;6.574;2022-11-20T14:10:25;3.70;99.90
57753;DHT22;43583;53.132;6.574;2022-11-20T14:12:51;3.60;99.90
57753;DHT22;43583;53.132;6.574;2022-11-20T14:15:31;3.60;99.90
57753;DHT22;43583;53.132;6.574;2022-11-20T14:17:58;3.60;99.90
57753;DHT22;43583;53.132;6.574;2022-11-20T14:20:28;3.60;99.90
57753;DHT22;43583;53.132;6.574;2022-11-20T14:22:55;3.50;99.90
57753;DHT22;43583;53.132;6.574;2022-11-20T14:25:26;3.50;99.90
57753;DHT22;43583;53.132;6.574;2022-11-20T14:27:57;3.40;99.90
57753;DHT22;43583;53.132;6.574;2022-11-20T14:30:25;3.40;99.90
57753;DHT22;43583;53.132;6.574;2022-11-20T14:32:54;3.30;99.90
57753;DHT22;43583;53.132;6.574;2022-11-20T14:35:25;3.30;99.90
57753;DHT22;43583;53.132;6.574;2022-11-20T14:37:51;3.20;99.90
57753;DHT22;43583;53.132;6.574;2022-11-20T14:40:27;3.20;99.90
57753;DHT22;43583;53.132;6.574;2022-11-20T14:42:54;3.20;99.90
57753;DHT22;43583;53.132;6.574;2022-11-20T14:45:20;3.10;99.90
57753;DHT22;43583;53.132;6.574;2022-11-20T14:47:46;3.10;99.90
57753;DHT22;43583;53.132;6.574;2022-11-20T14:50:22;3.00;99.90
57753;DHT22;43583;53.132;6.574;2022-11-20T14:52:59;2.90;99.90
57753;DHT22;43583;53.132;6.574;2022-11-20T14:55:53;2.80;99.90
57753;DHT22;43583;53.132;6.574;2022-11-20T14:58:24;2.70;99.90
57753;DHT22;43583;53.132;6.574;2022-11-20T15:01:05;2.60;99.90
57753;DHT22;43583;53.132;6.574;2022-11-20T15:03:35;2.60;99.90
57753;DHT22;43583;53.132;6.574;2022-11-20T15:06:02;2.50;99.90
57753;DHT22;43583;53.132;6.574;2022-11-20T15:08:27;2.50;99.90
57753;DHT22;43583;53.132;6.574;2022-11-20T15:10:54;2.40;99.90
57753;DHT22;43583;53.132;6.574;2022-11-20T15:13:32;2.30;99.90
57753;DHT22;43583;53.132;6.574;2022-11-20T15:16:00;2.20;99.90
57753;DHT22;43583;53.132;6.574;2022-11-20T15:18:37;2.20;99.90
57753;DHT22;43583;53.132;6.574;2022-11-20T15:21:10;2.00;99.90
57753;DHT22;43583;53.132;6.574;2022-11-20T15:23:36;2.00;99.90
57753;DHT22;43583;53.132;6.574;2022-11-20T15:26:04;1.90;99.90
57753;DHT22;43583;53.132;6.574;2022-11-20T15:28:41;1.90;99.90
57753;DHT22;43583;53.132;6.574;2022-11-20T15:31:11;1.90;99.90
57753;DHT22;43583;53.132;6.574;2022-11-20T15:33:37;1.90;99.90
57753;DHT22;43583;53.132;6.574;2022-11-20T15:36:03;1.90;99.90
57753;DHT22;43583;53.132;6.574;2022-11-20T15:38:28;1.90;99.90
57753;DHT22;43583;53.132;6.574;2022-11-20T15:40:54;1.90;99.90
57753;DHT22;43583;53.132;6.574;2022-11-20T15:43:19;1.90;99.90
57753;DHT22;43583;53.132;6.574;2022-11-20T15:45:47;1.90;99.90
57753;DHT22;43583;53.132;6.574;2022-11-20T15:48:24;1.90;99.90
57753;DHT22;43583;53.132;6.574;2022-11-20T15:51:01;1.90;99.90
57753;DHT22;43583;53.132;6.574;2022-11-20T15:53:28;1.90;99.90
57753;DHT22;43583;53.132;6.574;2022-11-20T15:55:53;1.90;99.90
57753;DHT22;43583;53.132;6.574;2022-11-20T15:58:19;1.90;99.90
57753;DHT22;43583;53.132;6.574;2022-11-20T16:00:45;1.90;99.90
57753;DHT22;43583;53.132;6.574;2022-11-20T16:03:11;1.90;99.90
57753;DHT22;43583;53.132;6.574;2022-11-20T16:05:37;1.90;99.90
57753;DHT22;43583;53.132;6.574;2022-11-20T16:08:03;1.80;99.90
57753;DHT22;43583;53.132;6.574;2022-11-20T16:10:28;1.90;99.90
57753;DHT22;43583;53.132;6.574;2022-11-20T16:12:54;1.90;99.90
57753;DHT22;43583;53.132;6.574;2022-11-20T16:15:38;1.80;99.90
57753;DHT22;43583;53.132;6.574;2022-11-20T16:18:16;1.80;99.90
57753;DHT22;43583;53.132;6.574;2022-11-20T16:20:42;1.90;99.90
57753;DHT22;43583;53.132;6.574;2022-11-20T16:23:08;1.80;99.90
57753;DHT22;43583;53.132;6.574;2022-11-20T16:25:33;1.80;99.90
57753;DHT22;43583;53.132;6.574;2022-11-20T16:27:59;1.90;99.90
57753;DHT22;43583;53.132;6.574;2022-11-20T16:30:25;1.80;99.90
57753;DHT22;43583;53.132;6.574;2022-11-20T16:32:50;1.80;99.90
57753;DHT22;43583;53.132;6.574;2022-11-20T16:35:16;1.80;99.90
57753;DHT22;43583;53.132;6.574;2022-11-20T16:37:42;1.80;99.90
57753;DHT22;43583;53.132;6.574;2022-11-20T16:40:09;1.80;99.90
57753;DHT22;43583;53.132;6.574;2022-11-20T16:42:36;1.80;99.90
57753;DHT22;43583;53.132;6.574;2022-11-20T16:45:03;1.80;99.90
57753;DHT22;43583;53.132;6.574;2022-11-20T16:47:32;1.80;99.90
57753;DHT22;43583;53.132;6.574;2022-11-20T16:49:58;1.80;99.90
57753;DHT22;43583;53.132;6.574;2022-11-20T16:52:23;1.80;99.90
57753;DHT22;43583;53.132;6.574;2022-11-20T16:54:49;1.80;99.90
57753;DHT22;43583;53.132;6.574;2022-11-20T16:57:14;1.80;99.90
57753;DHT22;43583;53.132;6.574;2022-11-20T16:59:40;1.80;99.90
57753;DHT22;43583;53.132;6.574;2022-11-20T17:02:08;1.80;99.90
57753;DHT22;43583;53.132;6.574;2022-11-20T17:04:35;1.80;99.90
57753;DHT22;43583;53.132;6.574;2022-11-20T17:07:00;1.80;99.90
57753;DHT22;43583;53.132;6.574;2022-11-20T17:09:27;1.80;99.90
57753;DHT22;43583;53.132;6.574;2022-11-20T17:11:52;1.80;99.90
57753;DHT22;43583;53.132;6.574;2022-11-20T17:14:18;1.80;99.90
57753;DHT22;43583;53.132;6.574;2022-11-20T17:16:44;1.80;99.90
57753;DHT22;43583;53.132;6.574;2022-11-20T17:19:10;1.80;99.90
57753;DHT22;43583;53.132;6.574;2022-11-20T17:21:35;1.80;99.90
57753;DHT22;43583;53.132;6.574;2022-11-20T17:24:03;1.80;99.90
57753;DHT22;43583;53.132;6.574;2022-11-20T17:26:29;1.80;99.90
57753;DHT22;43583;53.132;6.574;2022-11-20T17:31:23;1.80;99.90
57753;DHT22;43583;53.132;6.574;2022-11-20T17:33:49;1.80;99.90
57753;DHT22;43583;53.132;6.574;2022-11-20T17:36:15;1.80;99.90
57753;DHT22;43583;53.132;6.574;2022-11-20T17:38:42;1.80;99.90